createdAt,value
2018-01-15T00:02:13.875Z,27.00
2018-01-15T00:04:42.364Z,26.87
2018-01-15T00:07:10.893Z,24.37
2018-01-15T00:09:39.414Z,27.00
2018-01-15T00:12:07.933Z,24.83
2018-01-15T00:14:37.184Z,26.77
2018-01-15T00:17:05.495Z,24.60
2018-01-15T00:19:34.094Z,25.00
2018-01-15T00:22:03.337Z,23.37
2018-01-15T00:24:31.860Z,29.40
2018-01-15T00:27:00.399Z,28.60
2018-01-15T00:29:28.877Z,17.57
2018-01-15T00:31:57.400Z,24.43
2018-01-15T00:34:25.927Z,24.43
2018-01-15T00:36:54.412Z,26.40
2018-01-15T00:39:22.942Z,27.43
2018-01-15T00:41:51.457Z,28.00
2018-01-15T00:44:19.931Z,25.13
2018-01-15T00:46:48.423Z,26.70
2018-01-15T00:49:17.703Z,29.23
2018-01-15T00:51:46.786Z,23.17
2018-01-15T00:54:16.130Z,27.30
2018-01-15T00:56:44.611Z,29.23
2018-01-15T00:59:13.116Z,24.97
2018-01-15T01:01:41.638Z,29.73
2018-01-15T01:04:10.166Z,29.80
2018-01-15T01:06:38.642Z,28.90
2018-01-15T01:09:07.168Z,27.03
2018-01-15T01:11:36.429Z,27.97
2018-01-15T01:14:04.956Z,28.07
2018-01-15T01:16:33.501Z,25.33
2018-01-15T01:19:02.037Z,26.93
2018-01-15T01:21:30.565Z,26.63
2018-01-15T01:23:59.200Z,30.43
2018-01-15T01:26:27.678Z,31.87
2018-01-15T01:28:56.213Z,26.03
2018-01-15T01:31:24.707Z,30.67
2018-01-15T01:33:54.009Z,27.80
2018-01-15T01:36:23.261Z,28.30
2018-01-15T01:38:51.790Z,27.23
2018-01-15T01:41:21.075Z,26.97
2018-01-15T01:43:50.322Z,29.43
2018-01-15T01:46:19.110Z,34.70
2018-01-15T01:48:52.947Z,35.07
2018-01-15T01:51:22.233Z,32.67
2018-01-15T01:53:50.729Z,35.80
2018-01-15T01:56:19.212Z,34.27
2018-01-15T01:58:47.700Z,34.50
2018-01-15T02:01:16.210Z,36.33
2018-01-15T02:03:44.708Z,38.77
2018-01-15T02:06:13.195Z,34.27
2018-01-15T02:08:41.661Z,35.00
2018-01-15T02:11:10.167Z,34.17
2018-01-15T02:13:38.636Z,37.47
2018-01-15T02:16:07.106Z,37.13
2018-01-15T02:18:35.591Z,39.17
2018-01-15T02:21:03.734Z,37.27
2018-01-15T02:23:33.003Z,34.60
2018-01-15T02:26:00.801Z,34.93
2018-01-15T02:28:29.286Z,40.57
2018-01-15T02:30:57.162Z,39.40
2018-01-15T02:33:25.655Z,34.37
2018-01-15T02:35:54.222Z,35.37
2018-01-15T02:38:22.690Z,42.27
2018-01-15T02:40:51.180Z,38.67
2018-01-15T02:43:19.675Z,33.50
2018-01-15T02:45:48.635Z,35.97
2018-01-15T02:48:17.877Z,32.23
2018-01-15T02:50:47.005Z,31.67
2018-01-15T02:53:16.969Z,31.73
2018-01-15T02:55:45.459Z,37.83
2018-01-15T02:58:13.984Z,37.03
2018-01-15T03:00:43.313Z,39.40
2018-01-15T03:03:11.845Z,36.07
2018-01-15T03:05:40.332Z,40.30
2018-01-15T03:08:08.905Z,32.17
2018-01-15T03:10:37.432Z,32.77
2018-01-15T03:13:05.965Z,40.80
2018-01-15T03:15:34.485Z,34.10
2018-01-15T03:18:03.072Z,36.93
2018-01-15T03:20:31.603Z,33.83
2018-01-15T03:23:00.153Z,33.90
2018-01-15T03:25:28.642Z,38.47
2018-01-15T03:27:57.190Z,32.80
2018-01-15T03:30:25.725Z,34.43
2018-01-15T03:32:54.224Z,38.60
2018-01-15T03:35:22.757Z,33.47
2018-01-15T03:37:51.334Z,34.13
2018-01-15T03:40:19.820Z,33.53
2018-01-15T03:42:49.252Z,34.07
2018-01-15T03:45:17.785Z,38.97
2018-01-15T03:47:46.623Z,33.30
2018-01-15T03:50:15.238Z,39.83
2018-01-15T03:52:44.488Z,36.57
2018-01-15T03:55:13.014Z,37.27
2018-01-15T03:57:42.304Z,34.47
2018-01-15T04:00:11.583Z,34.27
2018-01-15T04:02:40.088Z,33.60
2018-01-15T04:05:09.372Z,35.20
2018-01-15T04:07:37.915Z,33.60
2018-01-15T04:10:06.449Z,35.43
2018-01-15T04:12:36.731Z,33.60
2018-01-15T04:15:04.906Z,34.40
2018-01-15T04:17:33.400Z,31.27
2018-01-15T04:20:01.921Z,31.57
2018-01-15T04:22:31.456Z,34.13
2018-01-15T04:24:59.924Z,34.27
2018-01-15T04:27:28.402Z,38.63
2018-01-15T04:29:57.075Z,37.30
2018-01-15T04:32:26.559Z,37.70
2018-01-15T04:34:55.851Z,36.57
2018-01-15T04:37:25.118Z,34.37
2018-01-15T04:39:53.636Z,35.30
2018-01-15T04:42:22.884Z,35.27
2018-01-15T04:44:51.392Z,38.80
2018-01-15T04:47:19.942Z,34.87
2018-01-15T04:49:48.730Z,36.07
2018-01-15T04:52:19.026Z,37.23
2018-01-15T04:54:47.499Z,32.97
2018-01-15T04:57:16.283Z,32.43
2018-01-15T04:59:44.507Z,33.17
2018-01-15T05:02:12.973Z,34.27
2018-01-15T05:04:41.451Z,36.43
2018-01-15T05:07:09.940Z,33.93
2018-01-15T05:09:38.476Z,32.47
2018-01-15T05:12:07.008Z,27.73
2018-01-15T05:14:35.532Z,33.90
2018-01-15T05:17:04.989Z,31.17
2018-01-15T05:19:33.508Z,33.53
2018-01-15T05:22:02.795Z,34.57
2018-01-15T05:24:31.302Z,31.70
2018-01-15T05:26:59.825Z,28.87
2018-01-15T05:29:28.341Z,33.23
2018-01-15T05:31:57.602Z,37.10
2018-01-15T05:34:26.153Z,32.87
2018-01-15T05:36:54.688Z,37.57
2018-01-15T05:39:23.167Z,34.87
2018-01-15T05:41:51.692Z,35.10
2018-01-15T05:44:20.176Z,33.03
2018-01-15T05:46:48.705Z,30.30
2018-01-15T05:49:17.791Z,34.93
2018-01-15T05:51:46.709Z,37.70
2018-01-15T05:54:16.681Z,34.17
2018-01-15T05:56:45.158Z,36.23
2018-01-15T05:59:13.711Z,34.67
2018-01-15T06:01:42.250Z,36.93
2018-01-15T06:04:10.774Z,37.40
2018-01-15T06:06:39.306Z,42.77
2018-01-15T06:09:07.778Z,37.10
2018-01-15T06:11:36.261Z,38.37
2018-01-15T06:14:04.449Z,35.97
2018-01-15T06:16:33.041Z,36.77
2018-01-15T06:19:02.300Z,41.03
2018-01-15T06:21:30.782Z,41.43
2018-01-15T06:23:59.301Z,38.10
2018-01-15T06:26:28.609Z,41.20
2018-01-15T06:28:57.888Z,42.80
2018-01-15T06:31:26.363Z,43.20
2018-01-15T06:33:54.863Z,42.30
2018-01-15T06:36:24.135Z,43.50
2018-01-15T06:38:52.634Z,41.10
2018-01-15T06:41:21.935Z,45.07
2018-01-15T06:43:51.210Z,41.07
2018-01-15T06:46:19.731Z,42.10
2018-01-15T06:48:48.900Z,47.23
2018-01-15T06:51:17.428Z,43.07
2018-01-15T06:53:45.951Z,42.43
2018-01-15T06:56:15.854Z,41.80
2018-01-15T06:58:44.412Z,41.43
2018-01-15T07:01:12.893Z,39.73
2018-01-15T07:03:41.390Z,38.80
2018-01-15T07:06:09.912Z,43.07
2018-01-15T07:08:39.192Z,42.53
2018-01-15T07:11:07.686Z,41.87
2018-01-15T07:13:36.972Z,45.53
2018-01-15T07:16:05.523Z,46.53
2018-01-15T07:18:34.059Z,44.17
2018-01-15T07:21:03.417Z,43.97
2018-01-15T07:23:31.930Z,46.00
2018-01-15T07:26:01.225Z,44.50
2018-01-15T07:28:30.477Z,41.47
2018-01-15T07:30:59.033Z,49.50
2018-01-15T07:33:27.500Z,46.23
2018-01-15T07:35:56.792Z,43.30
2018-01-15T07:38:26.109Z,43.50
2018-01-15T07:40:54.619Z,45.90
2018-01-15T07:43:23.306Z,44.23
2018-01-15T07:45:51.832Z,43.93
2018-01-15T07:48:21.085Z,48.90
2018-01-15T07:50:49.629Z,47.07
2018-01-15T07:53:18.997Z,44.97
2018-01-15T07:55:47.522Z,41.60
2018-01-15T07:58:16.448Z,39.50
2018-01-15T08:00:44.936Z,41.43
2018-01-15T08:03:13.447Z,41.30
2018-01-15T08:05:42.735Z,43.27
2018-01-15T08:08:11.222Z,44.03
2018-01-15T08:10:40.488Z,46.20
2018-01-15T08:13:08.990Z,53.33
2018-01-15T08:15:37.532Z,47.07
2018-01-15T08:18:06.006Z,41.10
2018-01-15T08:20:34.557Z,46.87
2018-01-15T08:23:03.808Z,43.40
2018-01-15T08:25:32.719Z,48.80
2018-01-15T08:28:01.263Z,49.67
2018-01-15T08:30:30.293Z,47.30
2018-01-15T08:32:58.812Z,44.33
2018-01-15T08:35:27.304Z,43.63
2018-01-15T08:37:55.833Z,46.37
2018-01-15T08:40:24.331Z,45.47
2018-01-15T08:42:53.576Z,44.03
2018-01-15T08:45:22.052Z,41.57
2018-01-15T08:47:50.674Z,47.50
2018-01-15T08:50:19.207Z,46.20
2018-01-15T08:52:48.604Z,44.83
2018-01-15T08:55:17.196Z,44.20
2018-01-15T08:57:45.732Z,44.60
2018-01-15T09:00:14.259Z,46.90
2018-01-15T09:02:42.759Z,39.43
2018-01-15T09:05:11.246Z,42.93
2018-01-15T09:07:39.756Z,47.20
2018-01-15T09:10:08.280Z,41.37
2018-01-15T09:12:36.802Z,46.83
2018-01-15T09:15:05.326Z,47.83
2018-01-15T09:17:33.811Z,47.07
2018-01-15T09:20:02.363Z,49.60
2018-01-15T09:22:31.658Z,41.27
2018-01-15T09:25:00.151Z,44.80
2018-01-15T09:27:29.436Z,38.23
2018-01-15T09:29:57.917Z,38.90
2018-01-15T09:32:26.434Z,43.73
2018-01-15T09:34:54.943Z,37.10
2018-01-15T09:37:23.414Z,44.33
2018-01-15T09:39:51.937Z,45.93
2018-01-15T09:42:20.436Z,42.43
2018-01-15T09:44:49.720Z,40.17
2018-01-15T09:47:18.928Z,43.27
2018-01-15T09:49:49.308Z,47.10
2018-01-15T09:52:18.304Z,42.87
2018-01-15T09:54:47.587Z,45.83
2018-01-15T09:57:16.432Z,50.33
2018-01-15T09:59:45.688Z,47.13
2018-01-15T10:02:14.249Z,48.00
2018-01-15T10:04:42.789Z,46.57
2018-01-15T10:07:12.068Z,49.13
2018-01-15T10:09:40.580Z,45.43
2018-01-15T10:12:09.889Z,49.20
2018-01-15T10:14:38.249Z,45.67
2018-01-15T10:17:07.345Z,43.70
2018-01-15T10:19:36.997Z,46.70
2018-01-15T10:22:05.470Z,39.77
2018-01-15T10:24:33.989Z,42.73
2018-01-15T10:27:02.522Z,42.63
2018-01-15T10:29:30.994Z,47.00
2018-01-15T10:31:59.540Z,46.77
2018-01-15T10:34:28.153Z,46.70
2018-01-15T10:36:56.622Z,46.43
2018-01-15T10:39:25.870Z,47.43
2018-01-15T10:41:54.384Z,42.30
2018-01-15T10:44:23.034Z,41.27
2018-01-15T10:46:53.364Z,45.73
2018-01-15T10:49:21.892Z,45.30
2018-01-15T10:51:51.164Z,40.33
2018-01-15T10:54:19.633Z,42.17
2018-01-15T10:56:48.106Z,42.57
2018-01-15T10:59:17.377Z,45.60
2018-01-15T11:01:45.847Z,40.43
2018-01-15T11:04:14.355Z,41.33
2018-01-15T11:06:42.895Z,36.17
2018-01-15T11:09:12.180Z,39.27
2018-01-15T11:11:41.414Z,40.57
2018-01-15T11:14:09.937Z,37.80
2018-01-15T11:16:38.457Z,37.70
2018-01-15T11:19:06.960Z,34.60
2018-01-15T11:21:35.467Z,35.40
2018-01-15T11:24:03.983Z,39.07
2018-01-15T11:26:32.701Z,37.10
2018-01-15T11:29:01.166Z,38.50
2018-01-15T11:31:29.680Z,41.37
2018-01-15T11:33:58.238Z,43.90
2018-01-15T11:36:26.720Z,38.03
2018-01-15T11:38:55.238Z,38.47
2018-01-15T11:41:23.743Z,39.10
2018-01-15T11:43:53.025Z,36.67
2018-01-15T11:46:21.550Z,38.70
2018-01-15T11:48:50.108Z,36.17
2018-01-15T11:51:20.120Z,39.10
2018-01-15T11:53:48.856Z,37.07
2018-01-15T11:56:17.997Z,44.63
2018-01-15T11:58:46.543Z,41.73
2018-01-15T12:01:15.161Z,40.10
2018-01-15T12:03:43.646Z,44.47
2018-01-15T12:06:12.125Z,40.83
2018-01-15T12:08:40.770Z,39.40
2018-01-15T12:11:09.476Z,39.83
2018-01-15T12:13:38.013Z,40.07
2018-01-15T12:16:06.499Z,40.53
2018-01-15T12:18:35.030Z,39.53
2018-01-15T12:21:03.571Z,38.20
2018-01-15T12:23:33.015Z,38.47
2018-01-15T12:26:01.525Z,40.80
2018-01-15T12:28:30.061Z,38.33
2018-01-15T12:30:58.592Z,41.73
2018-01-15T12:33:27.125Z,39.13
2018-01-15T12:35:55.649Z,43.00
2018-01-15T12:38:24.928Z,44.20
2018-01-15T12:40:54.226Z,41.67
2018-01-15T12:43:23.499Z,41.40
2018-01-15T12:45:52.006Z,42.77
2018-01-15T12:48:21.246Z,34.87
2018-01-15T12:50:49.800Z,42.67
2018-01-15T12:53:19.858Z,41.77
2018-01-15T12:55:49.176Z,39.67
2018-01-15T12:58:17.647Z,40.97
2018-01-15T13:00:46.169Z,38.30
2018-01-15T13:03:16.063Z,43.80
2018-01-15T13:05:52.732Z,38.63
2018-01-15T13:08:28.465Z,42.97
2018-01-15T13:10:56.961Z,34.13
2018-01-15T13:13:25.477Z,39.30
2018-01-15T13:15:54.758Z,39.50
2018-01-15T13:18:24.042Z,38.17
2018-01-15T13:20:52.509Z,36.63
2018-01-15T13:23:20.993Z,36.40
2018-01-15T13:25:49.530Z,39.43
2018-01-15T13:28:18.746Z,35.53
2018-01-15T13:30:48.354Z,34.70
2018-01-15T13:33:17.469Z,35.87
2018-01-15T13:35:45.998Z,34.93
2018-01-15T13:38:15.230Z,37.73
2018-01-15T13:40:43.744Z,37.20
2018-01-15T13:43:12.228Z,35.70
2018-01-15T13:45:40.746Z,34.63
2018-01-15T13:48:09.438Z,34.00
2018-01-15T13:50:38.899Z,36.60
2018-01-15T13:53:07.428Z,36.43
2018-01-15T13:55:35.941Z,36.87
2018-01-15T13:58:04.459Z,38.57
2018-01-15T14:00:33.759Z,35.67
2018-01-15T14:03:02.982Z,35.97
2018-01-15T14:05:31.493Z,35.97
2018-01-15T14:08:00.022Z,32.73
2018-01-15T14:10:29.318Z,32.23
2018-01-15T14:12:58.550Z,31.13
2018-01-15T14:15:27.041Z,32.30
2018-01-15T14:17:55.556Z,31.47
2018-01-15T14:20:24.049Z,33.40
2018-01-15T14:22:53.295Z,32.50
2018-01-15T14:25:21.813Z,34.20
2018-01-15T14:27:50.289Z,36.80
2018-01-15T14:30:19.669Z,38.53
2018-01-15T14:32:48.164Z,35.43
2018-01-15T14:35:16.669Z,35.10
2018-01-15T14:37:45.937Z,37.33
2018-01-15T14:40:14.516Z,35.73
2018-01-15T14:42:43.981Z,32.10
2018-01-15T14:45:12.660Z,34.30
2018-01-15T14:47:41.189Z,34.97
2018-01-15T14:50:09.704Z,31.87
2018-01-15T14:52:38.999Z,31.27
2018-01-15T14:55:07.481Z,27.27
2018-01-15T14:57:36.802Z,30.63
2018-01-15T15:00:05.437Z,28.30
2018-01-15T15:02:34.926Z,25.70
2018-01-15T15:05:03.591Z,19.53
2018-01-15T15:07:32.105Z,24.17
2018-01-15T15:10:00.624Z,14.80
2018-01-15T15:12:30.978Z,22.07
2018-01-15T15:14:59.459Z,30.47
2018-01-15T15:17:28.017Z,26.87
2018-01-15T15:19:57.252Z,24.97
2018-01-15T15:22:26.736Z,28.37
2018-01-15T15:24:55.250Z,26.10
2018-01-15T15:27:23.752Z,25.90
2018-01-15T15:29:52.293Z,26.37
2018-01-15T15:32:20.761Z,24.27
2018-01-15T15:34:50.184Z,25.23
2018-01-15T15:37:19.460Z,25.47
2018-01-15T15:39:48.870Z,22.57
2018-01-15T15:42:19.029Z,24.67
2018-01-15T15:44:48.175Z,20.30
2018-01-15T15:47:17.132Z,18.07
2018-01-15T15:49:45.650Z,23.13
2018-01-15T15:52:15.229Z,23.57
2018-01-15T15:54:43.700Z,19.90
2018-01-15T15:57:12.230Z,24.67
2018-01-15T15:59:40.754Z,18.73
2018-01-15T16:02:09.345Z,12.23
2018-01-15T16:04:37.866Z,13.00
2018-01-15T16:07:06.416Z,25.43
2018-01-15T16:09:34.894Z,20.30
2018-01-15T16:12:03.391Z,10.53
2018-01-15T16:14:32.726Z,19.27
2018-01-15T16:17:00.883Z,14.47
2018-01-15T16:19:29.392Z,22.80
2018-01-15T16:22:08.981Z,24.93
2018-01-15T16:24:38.236Z,25.87
2018-01-15T16:27:06.774Z,26.03
2018-01-15T16:29:36.074Z,9.90
2018-01-15T16:32:05.310Z,19.57
2018-01-15T16:34:33.792Z,26.40
2018-01-15T16:37:02.320Z,21.83
2018-01-15T16:39:31.235Z,21.83
2018-01-15T16:41:59.709Z,27.90
2018-01-15T16:44:28.246Z,25.37
2018-01-15T16:46:56.732Z,22.00
2018-01-15T16:49:25.238Z,23.83
2018-01-15T16:51:54.480Z,22.43
2018-01-15T16:54:22.970Z,12.87
2018-01-15T16:56:51.514Z,15.97
2018-01-15T16:59:19.996Z,20.83
2018-01-15T17:01:49.326Z,22.27
2018-01-15T17:04:17.811Z,23.20
2018-01-15T17:06:46.286Z,13.23
2018-01-15T17:09:16.026Z,18.63
2018-01-15T17:11:45.314Z,25.37
2018-01-15T17:14:14.015Z,31.03
2018-01-15T17:16:43.294Z,28.10
2018-01-15T17:19:11.816Z,22.53
2018-01-15T17:21:40.357Z,22.93
2018-01-15T17:24:08.851Z,21.93
2018-01-15T17:26:38.168Z,22.30
2018-01-15T17:29:07.402Z,24.73
2018-01-15T17:31:35.916Z,22.03
2018-01-15T17:34:04.457Z,24.37
2018-01-15T17:36:32.947Z,42.03
2018-01-15T17:39:01.489Z,23.37
2018-01-15T17:41:30.807Z,25.30
2018-01-15T17:43:59.382Z,22.63
2018-01-15T17:46:27.841Z,24.47
2018-01-15T17:48:56.882Z,24.17
2018-01-15T17:51:25.441Z,19.97
2018-01-15T17:53:53.952Z,19.90
2018-01-15T17:56:22.441Z,29.87
2018-01-15T17:58:50.925Z,23.63
2018-01-15T18:01:19.610Z,26.50
2018-01-15T18:03:48.543Z,23.20
2018-01-15T18:06:17.158Z,18.37
2018-01-15T18:08:45.675Z,26.47
2018-01-15T18:11:14.234Z,21.43
2018-01-15T18:13:42.761Z,27.23
2018-01-15T18:16:12.036Z,21.23
2018-01-15T18:18:40.523Z,19.93
2018-01-15T18:21:09.789Z,21.27
2018-01-15T18:23:38.264Z,22.00
2018-01-15T18:26:06.770Z,18.77
2018-01-15T18:28:35.239Z,21.33
2018-01-15T18:31:03.786Z,22.67
2018-01-15T18:33:32.273Z,20.53
2018-01-15T18:36:00.742Z,23.00
2018-01-15T18:38:29.266Z,20.83
2018-01-15T18:40:57.775Z,21.33
2018-01-15T18:43:27.070Z,21.30
2018-01-15T18:45:56.319Z,22.50
2018-01-15T18:48:24.836Z,21.73
2018-01-15T18:50:53.442Z,21.53
2018-01-15T18:53:21.957Z,24.57
2018-01-15T18:55:50.495Z,21.93
2018-01-15T18:58:19.774Z,24.30
2018-01-15T19:00:48.503Z,23.23
2018-01-15T19:03:17.719Z,23.97
2018-01-15T19:05:47.604Z,23.67
2018-01-15T19:08:16.290Z,25.20
2018-01-15T19:10:44.510Z,22.53
2018-01-15T19:13:13.050Z,22.53
2018-01-15T19:15:41.580Z,23.93
2018-01-15T19:18:10.132Z,23.67
2018-01-15T19:20:38.713Z,22.93
2018-01-15T19:23:07.490Z,24.60
2018-01-15T19:25:36.235Z,26.00
2018-01-15T19:28:04.901Z,25.10
2018-01-15T19:30:36.966Z,23.67
2018-01-15T19:33:05.606Z,18.23
2018-01-15T19:35:40.118Z,26.10
2018-01-15T19:38:24.427Z,25.80
2018-01-15T19:40:53.056Z,21.97
2018-01-15T19:43:23.438Z,23.07
2018-01-15T19:45:58.183Z,19.07
2018-01-15T19:48:33.118Z,23.30
2018-01-15T19:51:07.941Z,24.13
2018-01-15T19:53:42.897Z,22.67
2018-01-15T19:56:17.910Z,20.00
2018-01-15T19:58:53.298Z,20.80
2018-01-15T20:01:27.275Z,24.20
2018-01-15T20:04:01.618Z,22.73
2018-01-15T20:06:37.633Z,23.43
2018-01-15T20:09:12.921Z,19.80
2018-01-15T20:11:41.270Z,23.57
2018-01-15T20:14:09.327Z,17.37
2018-01-15T20:16:37.637Z,21.60
2018-01-15T20:19:06.148Z,22.87
2018-01-15T20:21:35.401Z,21.57
2018-01-15T20:24:03.928Z,15.90
2018-01-15T20:26:33.344Z,19.73
2018-01-15T20:29:02.843Z,16.73
2018-01-15T20:31:31.411Z,20.47
2018-01-15T20:34:00.758Z,22.10
2018-01-15T20:36:29.255Z,18.90
2018-01-15T20:38:57.783Z,19.70
2018-01-15T20:41:27.043Z,17.27
2018-01-15T20:43:55.548Z,22.07
2018-01-15T20:46:24.072Z,23.43
2018-01-15T20:48:52.552Z,12.50
2018-01-15T20:51:21.193Z,13.37
2018-01-15T20:53:50.439Z,19.13
2018-01-15T20:56:19.475Z,17.33
2018-01-15T20:58:48.004Z,20.60
2018-01-15T21:01:16.839Z,20.50
2018-01-15T21:03:45.340Z,16.00
2018-01-15T21:06:14.593Z,19.07
2018-01-15T21:08:43.132Z,18.03
2018-01-15T21:11:11.641Z,21.07
2018-01-15T21:13:40.161Z,19.80
2018-01-15T21:16:08.648Z,22.47
2018-01-15T21:18:37.207Z,17.53
2018-01-15T21:21:05.377Z,21.70
2018-01-15T21:23:34.734Z,18.30
2018-01-15T21:26:03.326Z,22.97
2018-01-15T21:28:31.653Z,20.83
2018-01-15T21:31:00.136Z,17.13
2018-01-15T21:33:28.674Z,15.20
2018-01-15T21:35:57.323Z,19.27
2018-01-15T21:38:27.417Z,20.60
2018-01-15T21:40:56.083Z,15.97
2018-01-15T21:43:24.670Z,14.77
2018-01-15T21:45:59.448Z,16.67
2018-01-15T21:48:28.113Z,14.20
2018-01-15T21:50:56.755Z,18.00
2018-01-15T21:53:25.355Z,16.93
2018-01-15T21:55:53.949Z,18.67
2018-01-15T21:58:22.459Z,16.33
2018-01-15T22:00:51.026Z,15.77
2018-01-15T22:03:19.638Z,17.40
2018-01-15T22:05:48.282Z,17.97
2018-01-15T22:08:16.893Z,18.00
2018-01-15T22:10:46.307Z,13.43
2018-01-15T22:13:15.620Z,14.67
2018-01-15T22:15:44.183Z,13.20
2018-01-15T22:18:12.799Z,15.73
2018-01-15T22:20:42.645Z,12.93
2018-01-15T22:23:11.225Z,14.47
2018-01-15T22:25:39.812Z,14.07
2018-01-15T22:28:08.385Z,12.23
2018-01-15T22:30:36.979Z,14.57
2018-01-15T22:33:05.595Z,11.53
2018-01-15T22:35:34.140Z,12.47
2018-01-15T22:38:02.764Z,10.03
2018-01-15T22:40:32.098Z,8.07
2018-01-15T22:43:01.482Z,7.17
2018-01-15T22:45:30.046Z,8.23
2018-01-15T22:47:59.386Z,7.20
2018-01-15T22:50:27.979Z,7.43
2018-01-15T22:52:57.337Z,7.97
2018-01-15T22:55:25.925Z,9.17
2018-01-15T22:57:55.311Z,10.67
2018-01-15T23:00:23.936Z,8.07
2018-01-15T23:02:52.500Z,8.13
2018-01-15T23:05:21.890Z,8.70
2018-01-15T23:07:51.217Z,7.73
2018-01-15T23:10:19.800Z,7.63
2018-01-15T23:12:49.128Z,8.07
2018-01-15T23:15:17.771Z,7.63
2018-01-15T23:17:46.325Z,7.23
2018-01-15T23:20:14.912Z,7.23
2018-01-15T23:22:43.533Z,8.10
2018-01-15T23:25:12.099Z,6.93
2018-01-15T23:27:41.450Z,8.23
2018-01-15T23:30:10.010Z,6.67
2018-01-15T23:32:38.588Z,8.20
2018-01-15T23:35:07.228Z,7.50
2018-01-15T23:37:35.807Z,7.23
2018-01-15T23:40:04.364Z,8.87
2018-01-15T23:42:33.672Z,8.60
2018-01-15T23:47:36.957Z,6.77
2018-01-15T23:50:05.552Z,7.90
2018-01-15T23:52:34.901Z,5.90
2018-01-15T23:55:03.891Z,6.07
2018-01-15T23:57:32.457Z,7.03
